sensor_id;sensor_type;location;lat;lon;timestamp;temperature;humidity
28524;DHT22;15734;50.904;6.922;2023-12-29T00:00:18;10.80;99.90
28524;DHT22;15734;50.904;6.922;2023-12-29T00:02:43;10.80;99.90
28524;DHT22;15734;50.904;6.922;2023-12-29T00:05:09;10.80;99.90
28524;DHT22;15734;50.904;6.922;2023-12-29T00:07:34;10.80;99.90
28524;DHT22;15734;50.904;6.922;2023-12-29T00:10:00;11.00;99.90
28524;DHT22;15734;50.904;6.922;2023-12-29T00:12:25;11.00;99.90
28524;DHT22;15734;50.904;6.922;2023-12-29T00:14:51;11.10;99.90
28524;DHT22;15734;50.904;6.922;2023-12-29T00:17:16;11.10;99.90
28524;DHT22;15734;50.904;6.922;2023-12-29T00:19:42;11.20;99.90
28524;DHT22;15734;50.904;6.922;2023-12-29T00:22:07;11.20;99.90
28524;DHT22;15734;50.904;6.922;2023-12-29T00:24:33;11.20;99.90
28524;DHT22;15734;50.904;6.922;2023-12-29T00:26:59;11.10;99.90
28524;DHT22;15734;50.904;6.922;2023-12-29T00:29:25;11.20;99.90
28524;DHT22;15734;50.904;6.922;2023-12-29T00:31:50;11.10;99.90
28524;DHT22;15734;50.904;6.922;2023-12-29T00:34:16;11.10;99.90
28524;DHT22;15734;50.904;6.922;2023-12-29T00:36:41;11.10;99.90
28524;DHT22;15734;50.904;6.922;2023-12-29T00:39:07;11.10;99.90
28524;DHT22;15734;50.904;6.922;2023-12-29T00:41:32;11.10;99.90
28524;DHT22;15734;50.904;6.922;2023-12-29T00:43:58;11.10;99.90
28524;DHT22;15734;50.904;6.922;2023-12-29T00:46:23;11.10;99.90
28524;DHT22;15734;50.904;6.922;2023-12-29T00:48:49;11.10;99.90
28524;DHT22;15734;50.904;6.922;2023-12-29T00:51:14;11.20;99.90
28524;DHT22;15734;50.904;6.922;2023-12-29T00:53:40;11.20;99.90
28524;DHT22;15734;50.904;6.922;2023-12-29T00:56:12;11.20;99.90
28524;DHT22;15734;50.904;6.922;2023-12-29T00:58:37;11.20;99.90
28524;DHT22;15734;50.904;6.922;2023-12-29T01:01:03;11.20;99.90
28524;DHT22;15734;50.904;6.922;2023-12-29T01:03:30;11.20;99.90
28524;DHT22;15734;50.904;6.922;2023-12-29T01:05:55;11.10;99.90
28524;DHT22;15734;50.904;6.922;2023-12-29T01:08:21;11.20;99.90
28524;DHT22;15734;50.904;6.922;2023-12-29T01:10:46;11.10;99.90
28524;DHT22;15734;50.904;6.922;2023-12-29T01:13:12;11.10;99.90
28524;DHT22;15734;50.904;6.922;2023-12-29T01:15:37;11.10;99.90
28524;DHT22;15734;50.904;6.922;2023-12-29T01:18:03;11.10;99.90
28524;DHT22;15734;50.904;6.922;2023-12-29T01:20:29;11.10;99.90
28524;DHT22;15734;50.904;6.922;2023-12-29T01:22:54;11.10;99.90
28524;DHT22;15734;50.904;6.922;2023-12-29T01:25:20;11.10;99.90
28524;DHT22;15734;50.904;6.922;2023-12-29T01:27:45;11.10;99.90
28524;DHT22;15734;50.904;6.922;2023-12-29T01:30:11;11.00;99.90
28524;DHT22;15734;50.904;6.922;2023-12-29T01:32:37;11.00;99.90
28524;DHT22;15734;50.904;6.922;2023-12-29T01:35:02;11.00;99.90
28524;DHT22;15734;50.904;6.922;2023-12-29T01:37:28;11.00;99.90
28524;DHT22;15734;50.904;6.922;2023-12-29T01:39:54;10.90;99.90
28524;DHT22;15734;50.904;6.922;2023-12-29T01:42:19;10.90;99.90
28524;DHT22;15734;50.904;6.922;2023-12-29T01:44:45;10.90;99.90
28524;DHT22;15734;50.904;6.922;2023-12-29T01:47:14;10.90;99.90
28524;DHT22;15734;50.904;6.922;2023-12-29T01:49:43;11.00;99.90
28524;DHT22;15734;50.904;6.922;2023-12-29T01:52:09;11.00;99.90
28524;DHT22;15734;50.904;6.922;2023-12-29T01:54:36;11.00;99.90
28524;DHT22;15734;50.904;6.922;2023-12-29T01:57:04;11.00;99.90
28524;DHT22;15734;50.904;6.922;2023-12-29T01:59:29;11.00;99.90
28524;DHT22;15734;50.904;6.922;2023-12-29T02:01:56;11.00;99.90
28524;DHT22;15734;50.904;6.922;2023-12-29T02:04:24;11.00;99.90
28524;DHT22;15734;50.904;6.922;2023-12-29T02:06:51;11.10;99.90
28524;DHT22;15734;50.904;6.922;2023-12-29T02:09:17;11.10;99.90
28524;DHT22;15734;50.904;6.922;2023-12-29T02:11:44;11.10;99.90
28524;DHT22;15734;50.904;6.922;2023-12-29T02:14:10;11.10;99.90
28524;DHT22;15734;50.904;6.922;2023-12-29T02:16:45;11.10;99.90
28524;DHT22;15734;50.904;6.922;2023-12-29T02:19:36;11.10;99.90
28524;DHT22;15734;50.904;6.922;2023-12-29T02:22:03;11.20;99.90
28524;DHT22;15734;50.904;6.922;2023-12-29T02:24:29;11.20;99.90
28524;DHT22;15734;50.904;6.922;2023-12-29T02:29:33;11.30;99.90
28524;DHT22;15734;50.904;6.922;2023-12-29T02:31:59;11.30;99.90
28524;DHT22;15734;50.904;6.922;2023-12-29T02:34:28;11.30;99.90
28524;DHT22;15734;50.904;6.922;2023-12-29T02:36:55;11.40;99.90
28524;DHT22;15734;50.904;6.922;2023-12-29T02:39:21;11.40;99.90
28524;DHT22;15734;50.904;6.922;2023-12-29T02:41:47;11.40;99.90
28524;DHT22;15734;50.904;6.922;2023-12-29T02:44:13;11.40;99.90
28524;DHT22;15734;50.904;6.922;2023-12-29T02:46:38;11.40;99.90
28524;DHT22;15734;50.904;6.922;2023-12-29T02:49:04;11.50;99.90
28524;DHT22;15734;50.904;6.922;2023-12-29T02:51:29;11.50;99.90
28524;DHT22;15734;50.904;6.922;2023-12-29T02:53:55;11.50;99.90
28524;DHT22;15734;50.904;6.922;2023-12-29T02:56:20;11.40;99.90
28524;DHT22;15734;50.904;6.922;2023-12-29T02:58:47;11.40;99.90
28524;DHT22;15734;50.904;6.922;2023-12-29T03:01:13;11.50;99.90
28524;DHT22;15734;50.904;6.922;2023-12-29T03:03:39;11.50;99.90
28524;DHT22;15734;50.904;6.922;2023-12-29T03:06:05;11.50;99.90
28524;DHT22;15734;50.904;6.922;2023-12-29T03:08:31;11.60;99.90
28524;DHT22;15734;50.904;6.922;2023-12-29T03:10:57;11.50;99.90
28524;DHT22;15734;50.904;6.922;2023-12-29T03:13:23;11.50;99.90
28524;DHT22;15734;50.904;6.922;2023-12-29T03:15:48;11.60;99.90
28524;DHT22;15734;50.904;6.922;2023-12-29T03:18:14;11.70;99.90
28524;DHT22;15734;50.904;6.922;2023-12-29T03:20:39;11.70;99.90
28524;DHT22;15734;50.904;6.922;2023-12-29T03:23:05;11.60;99.90
28524;DHT22;15734;50.904;6.922;2023-12-29T03:25:30;11.60;99.90
28524;DHT22;15734;50.904;6.922;2023-12-29T03:27:56;11.60;99.90
28524;DHT22;15734;50.904;6.922;2023-12-29T03:30:21;11.60;99.90
28524;DHT22;15734;50.904;6.922;2023-12-29T03:32:47;11.70;99.90
28524;DHT22;15734;50.904;6.922;2023-12-29T03:35:12;11.70;99.90
28524;DHT22;15734;50.904;6.922;2023-12-29T03:37:38;11.60;99.90
28524;DHT22;15734;50.904;6.922;2023-12-29T03:40:04;11.60;99.90
28524;DHT22;15734;50.904;6.922;2023-12-29T03:42:30;11.60;99.90
28524;DHT22;15734;50.904;6.922;2023-12-29T03:44:55;11.70;99.90
28524;DHT22;15734;50.904;6.922;2023-12-29T03:47:21;11.70;99.90
28524;DHT22;15734;50.904;6.922;2023-12-29T03:49:46;11.70;99.90
28524;DHT22;15734;50.904;6.922;2023-12-29T03:52:12;11.70;99.90
28524;DHT22;15734;50.904;6.922;2023-12-29T03:54:37;11.60;99.90
28524;DHT22;15734;50.904;6.922;2023-12-29T03:57:03;11.60;99.90
28524;DHT22;15734;50.904;6.922;2023-12-29T03:59:28;11.60;99.90
28524;DHT22;15734;50.904;6.922;2023-12-29T04:01:54;11.60;99.90
28524;DHT22;15734;50.904;6.922;2023-12-29T04:04:20;11.60;99.90
28524;DHT22;15734;50.904;6.922;2023-12-29T04:06:45;11.60;99.90
28524;DHT22;15734;50.904;6.922;2023-12-29T04:09:11;11.60;99.90
28524;DHT22;15734;50.904;6.922;2023-12-29T04:11:36;11.70;99.90
28524;DHT22;15734;50.904;6.922;2023-12-29T04:14:02;11.70;99.90
28524;DHT22;15734;50.904;6.922;2023-12-29T04:16:27;11.60;99.90
28524;DHT22;15734;50.904;6.922;2023-12-29T04:18:53;11.60;99.90
28524;DHT22;15734;50.904;6.922;2023-12-29T04:21:18;11.60;99.90
28524;DHT22;15734;50.904;6.922;2023-12-29T04:23:44;11.60;99.90
28524;DHT22;15734;50.904;6.922;2023-12-29T04:26:09;11.60;99.90
28524;DHT22;15734;50.904;6.922;2023-12-29T04:28:35;11.60;99.90
28524;DHT22;15734;50.904;6.922;2023-12-29T04:31:00;11.60;99.90
28524;DHT22;15734;50.904;6.922;2023-12-29T04:33:26;11.60;99.90
28524;DHT22;15734;50.904;6.922;2023-12-29T04:35:51;11.60;99.90
28524;DHT22;15734;50.904;6.922;2023-12-29T04:38:17;11.60;99.90
28524;DHT22;15734;50.904;6.922;2023-12-29T04:40:46;11.50;99.90
28524;DHT22;15734;50.904;6.922;2023-12-29T04:43:12;11.50;99.90
28524;DHT22;15734;50.904;6.922;2023-12-29T04:45:38;11.50;99.90
28524;DHT22;15734;50.904;6.922;2023-12-29T04:48:04;11.60;99.90
28524;DHT22;15734;50.904;6.922;2023-12-29T04:50:29;11.60;99.90
28524;DHT22;15734;50.904;6.922;2023-12-29T04:52:55;11.60;99.90
28524;DHT22;15734;50.904;6.922;2023-12-29T04:55:20;11.60;99.90
28524;DHT22;15734;50.904;6.922;2023-12-29T04:57:46;11.60;99.90
28524;DHT22;15734;50.904;6.922;2023-12-29T05:00:12;11.60;99.90
28524;DHT22;15734;50.904;6.922;2023-12-29T05:02:38;11.60;99.90
28524;DHT22;15734;50.904;6.922;2023-12-29T05:05:04;11.60;99.90
28524;DHT22;15734;50.904;6.922;2023-12-29T05:07:29;11.60;99.90
28524;DHT22;15734;50.904;6.922;2023-12-29T05:09:55;11.70;99.90
28524;DHT22;15734;50.904;6.922;2023-12-29T05:12:21;11.70;99.90
28524;DHT22;15734;50.904;6.922;2023-12-29T05:14:46;11.70;99.90
28524;DHT22;15734;50.904;6.922;2023-12-29T05:17:12;11.80;99.90
28524;DHT22;15734;50.904;6.922;2023-12-29T05:19:37;11.80;99.90
28524;DHT22;15734;50.904;6.922;2023-12-29T05:22:03;11.70;99.90
28524;DHT22;15734;50.904;6.922;2023-12-29T05:24:28;11.60;99.90
28524;DHT22;15734;50.904;6.922;2023-12-29T05:26:54;11.60;99.90
28524;DHT22;15734;50.904;6.922;2023-12-29T05:29:19;11.60;99.90
28524;DHT22;15734;50.904;6.922;2023-12-29T05:31:45;11.60;99.90
28524;DHT22;15734;50.904;6.922;2023-12-29T05:34:12;11.60;99.90
28524;DHT22;15734;50.904;6.922;2023-12-29T05:36:37;11.60;99.90
28524;DHT22;15734;50.904;6.922;2023-12-29T05:39:03;11.50;99.90
28524;DHT22;15734;50.904;6.922;2023-12-29T05:41:29;11.50;99.90
28524;DHT22;15734;50.904;6.922;2023-12-29T05:43:55;11.40;99.90
28524;DHT22;15734;50.904;6.922;2023-12-29T05:46:23;11.40;99.90
28524;DHT22;15734;50.904;6.922;2023-12-29T05:48:48;11.40;99.90
28524;DHT22;15734;50.904;6.922;2023-12-29T05:51:14;11.40;99.90
28524;DHT22;15734;50.904;6.922;2023-12-29T05:53:40;11.40;99.90
28524;DHT22;15734;50.904;6.922;2023-12-29T05:56:06;11.40;99.90
28524;DHT22;15734;50.904;6.922;2023-12-29T05:58:31;11.50;99.90
28524;DHT22;15734;50.904;6.922;2023-12-29T06:00:57;11.50;99.90
28524;DHT22;15734;50.904;6.922;2023-12-29T06:03:24;11.50;99.90
28524;DHT22;15734;50.904;6.922;2023-12-29T06:05:49;11.40;99.90
28524;DHT22;15734;50.904;6.922;2023-12-29T06:08:15;11.40;99.90
28524;DHT22;15734;50.904;6.922;2023-12-29T06:10:41;11.30;99.90
28524;DHT22;15734;50.904;6.922;2023-12-29T06:13:06;11.30;99.90
28524;DHT22;15734;50.904;6.922;2023-12-29T06:15:32;11.30;99.90
28524;DHT22;15734;50.904;6.922;2023-12-29T06:17:57;11.30;99.90
28524;DHT22;15734;50.904;6.922;2023-12-29T06:20:23;11.40;99.90
28524;DHT22;15734;50.904;6.922;2023-12-29T06:22:49;11.30;99.90
28524;DHT22;15734;50.904;6.922;2023-12-29T06:25:15;11.30;99.90
28524;DHT22;15734;50.904;6.922;2023-12-29T06:27:40;11.30;99.90
28524;DHT22;15734;50.904;6.922;2023-12-29T06:30:07;11.30;99.90
28524;DHT22;15734;50.904;6.922;2023-12-29T06:32:33;11.30;99.90
28524;DHT22;15734;50.904;6.922;2023-12-29T06:34:59;11.20;99.90
28524;DHT22;15734;50.904;6.922;2023-12-29T06:37:24;11.20;99.90
28524;DHT22;15734;50.904;6.922;2023-12-29T06:39:50;11.20;99.90
28524;DHT22;15734;50.904;6.922;2023-12-29T06:42:15;11.30;99.90
28524;DHT22;15734;50.904;6.922;2023-12-29T06:44:41;11.20;99.90
28524;DHT22;15734;50.904;6.922;2023-12-29T06:47:06;11.20;99.90
28524;DHT22;15734;50.904;6.922;2023-12-29T06:49:34;11.20;99.90
28524;DHT22;15734;50.904;6.922;2023-12-29T06:51:59;11.20;99.90
28524;DHT22;15734;50.904;6.922;2023-12-29T06:54:25;11.20;99.90
28524;DHT22;15734;50.904;6.922;2023-12-29T06:56:50;11.20;99.90
28524;DHT22;15734;50.904;6.922;2023-12-29T06:59:16;11.20;99.90
28524;DHT22;15734;50.904;6.922;2023-12-29T07:01:41;11.20;99.90
28524;DHT22;15734;50.904;6.922;2023-12-29T07:04:07;11.20;99.90
28524;DHT22;15734;50.904;6.922;2023-12-29T07:06:36;11.20;99.90
28524;DHT22;15734;50.904;6.922;2023-12-29T07:09:02;11.20;99.90
28524;DHT22;15734;50.904;6.922;2023-12-29T07:11:28;11.20;99.90
28524;DHT22;15734;50.904;6.922;2023-12-29T07:13:53;11.20;99.90
28524;DHT22;15734;50.904;6.922;2023-12-29T07:16:19;11.20;99.90
28524;DHT22;15734;50.904;6.922;2023-12-29T07:18:46;11.20;99.90
28524;DHT22;15734;50.904;6.922;2023-12-29T07:21:12;11.20;99.90
28524;DHT22;15734;50.904;6.922;2023-12-29T07:23:38;11.20;99.90
28524;DHT22;15734;50.904;6.922;2023-12-29T07:26:04;11.30;99.90
28524;DHT22;15734;50.904;6.922;2023-12-29T07:28:31;11.20;99.90
28524;DHT22;15734;50.904;6.922;2023-12-29T07:30:56;11.10;99.90
28524;DHT22;15734;50.904;6.922;2023-12-29T07:33:22;11.10;99.90
28524;DHT22;15734;50.904;6.922;2023-12-29T07:35:49;11.10;99.90
28524;DHT22;15734;50.904;6.922;2023-12-29T07:38:15;11.20;99.90
28524;DHT22;15734;50.904;6.922;2023-12-29T07:40:40;11.10;99.90
28524;DHT22;15734;50.904;6.922;2023-12-29T07:43:06;11.10;99.90
28524;DHT22;15734;50.904;6.922;2023-12-29T07:45:31;11.10;99.90
28524;DHT22;15734;50.904;6.922;2023-12-29T07:47:57;11.20;99.90
28524;DHT22;15734;50.904;6.922;2023-12-29T07:50:22;11.20;99.90
28524;DHT22;15734;50.904;6.922;2023-12-29T07:52:48;11.20;99.90
28524;DHT22;15734;50.904;6.922;2023-12-29T07:55:13;11.10;99.90
28524;DHT22;15734;50.904;6.922;2023-12-29T07:57:42;11.10;99.90
28524;DHT22;15734;50.904;6.922;2023-12-29T08:00:08;11.20;99.90
28524;DHT22;15734;50.904;6.922;2023-12-29T08:02:34;11.20;99.90
28524;DHT22;15734;50.904;6.922;2023-12-29T08:05:00;11.10;99.90
28524;DHT22;15734;50.904;6.922;2023-12-29T08:07:26;11.10;99.90
28524;DHT22;15734;50.904;6.922;2023-12-29T08:09:51;11.10;99.90
28524;DHT22;15734;50.904;6.922;2023-12-29T08:12:17;11.10;99.90
28524;DHT22;15734;50.904;6.922;2023-12-29T08:14:42;11.00;99.90
28524;DHT22;15734;50.904;6.922;2023-12-29T08:17:08;10.90;99.90
28524;DHT22;15734;50.904;6.922;2023-12-29T08:19:34;10.90;99.90
28524;DHT22;15734;50.904;6.922;2023-12-29T08:22:00;10.80;99.90
28524;DHT22;15734;50.904;6.922;2023-12-29T08:24:25;10.80;99.90
28524;DHT22;15734;50.904;6.922;2023-12-29T08:26:51;10.60;99.90
28524;DHT22;15734;50.904;6.922;2023-12-29T08:29:16;10.50;99.90
28524;DHT22;15734;50.904;6.922;2023-12-29T08:31:43;10.40;99.90
28524;DHT22;15734;50.904;6.922;2023-12-29T08:34:09;10.40;99.90
28524;DHT22;15734;50.904;6.922;2023-12-29T08:36:34;10.20;99.90
28524;DHT22;15734;50.904;6.922;2023-12-29T08:39:01;10.20;99.90
28524;DHT22;15734;50.904;6.922;2023-12-29T08:41:26;10.30;99.90
28524;DHT22;15734;50.904;6.922;2023-12-29T08:43:52;10.20;99.90
28524;DHT22;15734;50.904;6.922;2023-12-29T08:46:18;10.10;99.90
28524;DHT22;15734;50.904;6.922;2023-12-29T08:48:44;10.10;99.90
28524;DHT22;15734;50.904;6.922;2023-12-29T08:51:10;10.10;99.90
28524;DHT22;15734;50.904;6.922;2023-12-29T08:53:35;10.00;99.90
28524;DHT22;15734;50.904;6.922;2023-12-29T08:56:04;10.00;99.90
28524;DHT22;15734;50.904;6.922;2023-12-29T08:58:30;10.00;99.90
28524;DHT22;15734;50.904;6.922;2023-12-29T09:00:56;10.00;99.90
28524;DHT22;15734;50.904;6.922;2023-12-29T09:03:22;10.00;99.90
28524;DHT22;15734;50.904;6.922;2023-12-29T09:05:47;10.00;99.90
28524;DHT22;15734;50.904;6.922;2023-12-29T09:08:13;10.00;99.90
28524;DHT22;15734;50.904;6.922;2023-12-29T09:10:38;10.00;99.90
28524;DHT22;15734;50.904;6.922;2023-12-29T09:13:04;10.10;99.90
28524;DHT22;15734;50.904;6.922;2023-12-29T09:15:30;10.10;99.90
28524;DHT22;15734;50.904;6.922;2023-12-29T09:17:56;10.10;99.90
28524;DHT22;15734;50.904;6.922;2023-12-29T09:20:21;10.20;99.90
28524;DHT22;15734;50.904;6.922;2023-12-29T09:22:47;10.20;99.90
28524;DHT22;15734;50.904;6.922;2023-12-29T09:25:13;10.20;99.90
28524;DHT22;15734;50.904;6.922;2023-12-29T09:27:38;10.20;99.90
28524;DHT22;15734;50.904;6.922;2023-12-29T09:30:04;10.30;99.90
28524;DHT22;15734;50.904;6.922;2023-12-29T09:32:30;10.40;99.90
28524;DHT22;15734;50.904;6.922;2023-12-29T09:34:56;10.50;99.90
28524;DHT22;15734;50.904;6.922;2023-12-29T09:37:22;10.60;99.90
28524;DHT22;15734;50.904;6.922;2023-12-29T09:39:47;10.60;99.90
28524;DHT22;15734;50.904;6.922;2023-12-29T09:42:19;10.60;99.90
28524;DHT22;15734;50.904;6.922;2023-12-29T09:44:46;10.60;99.90
28524;DHT22;15734;50.904;6.922;2023-12-29T09:47:15;10.70;99.90
28524;DHT22;15734;50.904;6.922;2023-12-29T09:49:42;10.70;99.90
28524;DHT22;15734;50.904;6.922;2023-12-29T09:52:11;10.70;99.90
28524;DHT22;15734;50.904;6.922;2023-12-29T09:54:38;10.70;99.90
28524;DHT22;15734;50.904;6.922;2023-12-29T09:57:05;10.80;99.90
28524;DHT22;15734;50.904;6.922;2023-12-29T09:59:34;10.80;99.90
28524;DHT22;15734;50.904;6.922;2023-12-29T10:02:03;10.90;99.90
28524;DHT22;15734;50.904;6.922;2023-12-29T10:04:29;10.90;99.90
28524;DHT22;15734;50.904;6.922;2023-12-29T10:06:57;10.90;99.90
28524;DHT22;15734;50.904;6.922;2023-12-29T10:09:25;11.10;99.90
28524;DHT22;15734;50.904;6.922;2023-12-29T10:11:53;11.00;99.90
28524;DHT22;15734;50.904;6.922;2023-12-29T10:14:23;11.10;99.90
28524;DHT22;15734;50.904;6.922;2023-12-29T10:17:06;11.10;99.90
28524;DHT22;15734;50.904;6.922;2023-12-29T10:19:46;11.10;99.90
28524;DHT22;15734;50.904;6.922;2023-12-29T10:22:24;11.10;99.90
28524;DHT22;15734;50.904;6.922;2023-12-29T10:24:51;11.10;99.90
28524;DHT22;15734;50.904;6.922;2023-12-29T10:27:18;11.20;99.90
28524;DHT22;15734;50.904;6.922;2023-12-29T10:29:43;11.20;99.90
28524;DHT22;15734;50.904;6.922;2023-12-29T10:32:09;11.20;99.90
28524;DHT22;15734;50.904;6.922;2023-12-29T10:34:35;11.20;99.90
28524;DHT22;15734;50.904;6.922;2023-12-29T10:37:01;11.30;99.90
28524;DHT22;15734;50.904;6.922;2023-12-29T10:39:29;11.30;99.90
28524;DHT22;15734;50.904;6.922;2023-12-29T10:42:05;11.30;99.90
28524;DHT22;15734;50.904;6.922;2023-12-29T10:44:31;11.40;99.90
28524;DHT22;15734;50.904;6.922;2023-12-29T10:46:57;11.40;99.90
28524;DHT22;15734;50.904;6.922;2023-12-29T10:49:22;11.40;99.90
28524;DHT22;15734;50.904;6.922;2023-12-29T10:51:48;11.50;99.90
28524;DHT22;15734;50.904;6.922;2023-12-29T10:54:20;11.50;99.90
28524;DHT22;15734;50.904;6.922;2023-12-29T10:57:00;11.50;99.90
28524;DHT22;15734;50.904;6.922;2023-12-29T10:59:27;11.50;99.90
28524;DHT22;15734;50.904;6.922;2023-12-29T11:01:53;11.50;99.90
28524;DHT22;15734;50.904;6.922;2023-12-29T11:04:22;11.60;99.90
28524;DHT22;15734;50.904;6.922;2023-12-29T11:06:48;11.60;99.90
28524;DHT22;15734;50.904;6.922;2023-12-29T11:09:30;11.70;99.90
28524;DHT22;15734;50.904;6.922;2023-12-29T11:12:01;11.70;99.90
28524;DHT22;15734;50.904;6.922;2023-12-29T11:14:27;11.70;99.90
28524;DHT22;15734;50.904;6.922;2023-12-29T11:16:57;11.70;99.90
28524;DHT22;15734;50.904;6.922;2023-12-29T11:19:23;11.80;99.90
28524;DHT22;15734;50.904;6.922;2023-12-29T11:21:51;11.80;99.90
28524;DHT22;15734;50.904;6.922;2023-12-29T11:24:19;11.90;99.90
28524;DHT22;15734;50.904;6.922;2023-12-29T11:26:44;12.00;99.90
28524;DHT22;15734;50.904;6.922;2023-12-29T11:29:11;12.00;99.90
28524;DHT22;15734;50.904;6.922;2023-12-29T11:31:38;12.00;99.90
28524;DHT22;15734;50.904;6.922;2023-12-29T11:34:13;12.00;99.90
28524;DHT22;15734;50.904;6.922;2023-12-29T11:36:45;12.10;99.90
28524;DHT22;15734;50.904;6.922;2023-12-29T11:39:40;12.20;99.90
28524;DHT22;15734;50.904;6.922;2023-12-29T11:42:23;12.20;99.90
28524;DHT22;15734;50.904;6.922;2023-12-29T11:44:52;12.20;99.90
28524;DHT22;15734;50.904;6.922;2023-12-29T11:50:03;12.20;99.90
28524;DHT22;15734;50.904;6.922;2023-12-29T11:52:36;12.30;99.90
28524;DHT22;15734;50.904;6.922;2023-12-29T11:55:13;12.30;99.90
28524;DHT22;15734;50.904;6.922;2023-12-29T11:57:40;12.30;99.90
28524;DHT22;15734;50.904;6.922;2023-12-29T12:00:07;12.30;99.90
28524;DHT22;15734;50.904;6.922;2023-12-29T12:02:33;12.30;99.90
28524;DHT22;15734;50.904;6.922;2023-12-29T12:04:59;12.40;99.90
28524;DHT22;15734;50.904;6.922;2023-12-29T12:09:50;12.40;99.90
28524;DHT22;15734;50.904;6.922;2023-12-29T12:12:41;12.40;99.90
28524;DHT22;15734;50.904;6.922;2023-12-29T12:18:01;12.40;99.90
28524;DHT22;15734;50.904;6.922;2023-12-29T12:20:33;12.50;99.90
28524;DHT22;15734;50.904;6.922;2023-12-29T12:23:05;12.50;99.90
28524;DHT22;15734;50.904;6.922;2023-12-29T12:25:31;12.50;99.90
28524;DHT22;15734;50.904;6.922;2023-12-29T12:28:06;12.50;99.90
28524;DHT22;15734;50.904;6.922;2023-12-29T12:30:33;12.50;99.90
28524;DHT22;15734;50.904;6.922;2023-12-29T12:33:01;12.50;99.90
28524;DHT22;15734;50.904;6.922;2023-12-29T12:35:28;12.50;99.90
28524;DHT22;15734;50.904;6.922;2023-12-29T12:38:07;12.50;99.90
28524;DHT22;15734;50.904;6.922;2023-12-29T12:40:34;12.50;99.90
28524;DHT22;15734;50.904;6.922;2023-12-29T12:43:00;12.50;99.90
28524;DHT22;15734;50.904;6.922;2023-12-29T12:45:27;12.50;99.90
28524;DHT22;15734;50.904;6.922;2023-12-29T12:48:02;12.50;99.90
28524;DHT22;15734;50.904;6.922;2023-12-29T12:50:29;12.50;99.90
28524;DHT22;15734;50.904;6.922;2023-12-29T12:52:56;12.50;99.90
28524;DHT22;15734;50.904;6.922;2023-12-29T12:55:23;12.40;99.90
28524;DHT22;15734;50.904;6.922;2023-12-29T12:57:49;12.40;99.90
28524;DHT22;15734;50.904;6.922;2023-12-29T13:00:15;12.50;99.90
28524;DHT22;15734;50.904;6.922;2023-12-29T13:02:44;12.50;99.90
28524;DHT22;15734;50.904;6.922;2023-12-29T13:05:11;12.50;99.90
28524;DHT22;15734;50.904;6.922;2023-12-29T13:07:36;12.50;99.90
28524;DHT22;15734;50.904;6.922;2023-12-29T13:10:03;12.50;99.90
28524;DHT22;15734;50.904;6.922;2023-12-29T13:12:29;12.50;99.90
28524;DHT22;15734;50.904;6.922;2023-12-29T13:15:07;12.50;99.90
28524;DHT22;15734;50.904;6.922;2023-12-29T13:17:33;12.50;99.90
28524;DHT22;15734;50.904;6.922;2023-12-29T13:19:59;12.50;99.90
28524;DHT22;15734;50.904;6.922;2023-12-29T13:22:24;12.50;99.90
28524;DHT22;15734;50.904;6.922;2023-12-29T13:24:52;12.50;99.90
28524;DHT22;15734;50.904;6.922;2023-12-29T13:27:19;12.50;99.90
28524;DHT22;15734;50.904;6.922;2023-12-29T13:29:45;12.50;99.90
28524;DHT22;15734;50.904;6.922;2023-12-29T13:35:05;12.50;99.90
28524;DHT22;15734;50.904;6.922;2023-12-29T13:37:42;12.40;99.90
28524;DHT22;15734;50.904;6.922;2023-12-29T13:40:22;12.50;99.90
28524;DHT22;15734;50.904;6.922;2023-12-29T13:42:52;12.40;99.90
28524;DHT22;15734;50.904;6.922;2023-12-29T13:45:19;12.40;99.90
28524;DHT22;15734;50.904;6.922;2023-12-29T13:47:46;12.40;99.90
28524;DHT22;15734;50.904;6.922;2023-12-29T13:50:12;12.40;99.90
28524;DHT22;15734;50.904;6.922;2023-12-29T13:52:38;12.40;99.90
28524;DHT22;15734;50.904;6.922;2023-12-29T13:55:04;12.40;99.90
28524;DHT22;15734;50.904;6.922;2023-12-29T13:57:32;12.40;99.90
28524;DHT22;15734;50.904;6.922;2023-12-29T14:00:12;12.30;99.90
28524;DHT22;15734;50.904;6.922;2023-12-29T14:02:39;12.20;99.90
28524;DHT22;15734;50.904;6.922;2023-12-29T14:05:15;12.10;99.90
28524;DHT22;15734;50.904;6.922;2023-12-29T14:07:47;11.80;99.90
28524;DHT22;15734;50.904;6.922;2023-12-29T14:10:13;11.70;99.90
28524;DHT22;15734;50.904;6.922;2023-12-29T14:12:38;11.50;99.90
28524;DHT22;15734;50.904;6.922;2023-12-29T14:15:05;11.30;99.90
28524;DHT22;15734;50.904;6.922;2023-12-29T14:17:30;11.20;99.90
28524;DHT22;15734;50.904;6.922;2023-12-29T14:19:56;11.20;99.90
28524;DHT22;15734;50.904;6.922;2023-12-29T14:22:28;11.20;99.90
28524;DHT22;15734;50.904;6.922;2023-12-29T14:25:04;11.10;99.90
28524;DHT22;15734;50.904;6.922;2023-12-29T14:27:30;11.00;99.90
28524;DHT22;15734;50.904;6.922;2023-12-29T14:29:56;11.10;99.90
28524;DHT22;15734;50.904;6.922;2023-12-29T14:32:22;11.00;99.90
28524;DHT22;15734;50.904;6.922;2023-12-29T14:34:49;11.00;99.90
28524;DHT22;15734;50.904;6.922;2023-12-29T14:37:20;11.00;99.90
28524;DHT22;15734;50.904;6.922;2023-12-29T14:39:52;11.00;99.90
28524;DHT22;15734;50.904;6.922;2023-12-29T14:42:17;10.90;99.90
28524;DHT22;15734;50.904;6.922;2023-12-29T14:44:47;10.90;99.90
28524;DHT22;15734;50.904;6.922;2023-12-29T14:47:14;10.90;99.90
28524;DHT22;15734;50.904;6.922;2023-12-29T14:49:40;10.90;99.90
28524;DHT22;15734;50.904;6.922;2023-12-29T14:52:05;10.90;99.90
28524;DHT22;15734;50.904;6.922;2023-12-29T14:54:31;10.90;99.90
28524;DHT22;15734;50.904;6.922;2023-12-29T14:56:56;10.90;99.90
28524;DHT22;15734;50.904;6.922;2023-12-29T14:59:22;10.90;99.90
28524;DHT22;15734;50.904;6.922;2023-12-29T15:01:48;10.90;99.90
28524;DHT22;15734;50.904;6.922;2023-12-29T15:04:13;10.90;99.90
28524;DHT22;15734;50.904;6.922;2023-12-29T15:06:40;11.00;99.90
28524;DHT22;15734;50.904;6.922;2023-12-29T15:09:05;11.10;99.90
28524;DHT22;15734;50.904;6.922;2023-12-29T15:11:33;11.10;99.90
28524;DHT22;15734;50.904;6.922;2023-12-29T15:13:58;11.20;99.90
28524;DHT22;15734;50.904;6.922;2023-12-29T15:16:24;11.20;99.90
28524;DHT22;15734;50.904;6.922;2023-12-29T15:18:49;11.30;99.90
28524;DHT22;15734;50.904;6.922;2023-12-29T15:21:15;11.30;99.90
28524;DHT22;15734;50.904;6.922;2023-12-29T15:23:40;11.30;99.90
28524;DHT22;15734;50.904;6.922;2023-12-29T15:26:06;11.30;99.90
28524;DHT22;15734;50.904;6.922;2023-12-29T15:28:31;11.40;99.90
28524;DHT22;15734;50.904;6.922;2023-12-29T15:30:57;11.50;99.90
28524;DHT22;15734;50.904;6.922;2023-12-29T15:33:22;11.50;99.90
28524;DHT22;15734;50.904;6.922;2023-12-29T15:35:50;11.40;99.90
28524;DHT22;15734;50.904;6.922;2023-12-29T15:38:16;11.40;99.90
28524;DHT22;15734;50.904;6.922;2023-12-29T15:40:41;11.30;99.90